createdAt,value
2019-05-19T00:01:20.880Z,12.69
2019-05-19T00:03:49.388Z,12.57
2019-05-19T00:06:17.829Z,12.35
2019-05-19T00:08:46.206Z,12.34
2019-05-19T00:11:14.615Z,12.31
2019-05-19T00:13:43.096Z,12.30
2019-05-19T00:16:11.560Z,12.21
2019-05-19T00:18:39.954Z,12.20
2019-05-19T00:21:08.397Z,12.16
2019-05-19T00:23:36.788Z,12.17
2019-05-19T00:26:05.234Z,12.19
2019-05-19T00:28:33.617Z,12.09
2019-05-19T00:31:02.184Z,12.08
2019-05-19T00:33:30.645Z,12.03
2019-05-19T00:35:59.251Z,12.03
2019-05-19T00:38:27.643Z,12.09
2019-05-19T00:40:56.112Z,12.04
2019-05-19T00:43:24.498Z,11.98
2019-05-19T00:45:52.930Z,12.00
2019-05-19T00:48:21.394Z,11.99
2019-05-19T00:50:49.846Z,11.99
2019-05-19T00:53:18.239Z,12.02
2019-05-19T00:55:46.705Z,11.99
2019-05-19T00:58:15.675Z,11.98
2019-05-19T01:00:44.156Z,11.95
2019-05-19T01:03:12.569Z,12.01
2019-05-19T01:05:40.982Z,11.99
2019-05-19T01:08:09.523Z,11.99
2019-05-19T01:10:37.922Z,11.92
2019-05-19T01:13:06.353Z,11.92
2019-05-19T01:15:34.734Z,11.94
2019-05-19T01:18:03.137Z,12.02
2019-05-19T01:20:31.971Z,12.04
2019-05-19T01:23:04.910Z,12.01
2019-05-19T01:25:33.308Z,11.69
2019-05-19T01:28:01.942Z,11.97
2019-05-19T01:30:30.316Z,11.93
2019-05-19T01:32:58.720Z,11.90
2019-05-19T01:35:27.118Z,11.86
2019-05-19T01:37:55.536Z,11.87
2019-05-19T01:40:23.950Z,11.82
2019-05-19T01:42:52.358Z,11.79
2019-05-19T01:45:21.001Z,11.79
2019-05-19T01:47:49.395Z,11.82
2019-05-19T01:50:18.936Z,11.80
2019-05-19T01:52:47.420Z,11.76
2019-05-19T01:55:16.053Z,11.75
2019-05-19T01:57:44.568Z,11.77
2019-05-19T02:00:13.803Z,11.83
2019-05-19T02:02:42.197Z,11.79
2019-05-19T02:05:11.030Z,11.80
2019-05-19T02:07:39.488Z,11.86
2019-05-19T02:10:09.169Z,11.85
2019-05-19T02:12:37.830Z,11.82
2019-05-19T02:15:07.282Z,11.82
2019-05-19T02:17:35.787Z,11.84
2019-05-19T02:20:07.242Z,11.82
2019-05-19T02:22:35.623Z,11.82
2019-05-19T02:25:05.596Z,11.85
2019-05-19T02:27:34.015Z,11.87
2019-05-19T02:30:02.916Z,11.88
2019-05-19T02:32:31.407Z,11.90
2019-05-19T02:34:59.829Z,11.90
2019-05-19T02:37:28.293Z,11.89
2019-05-19T02:39:56.709Z,11.97
2019-05-19T02:42:28.521Z,11.97
2019-05-19T02:44:59.606Z,11.99
2019-05-19T02:47:28.413Z,12.05
2019-05-19T02:49:58.248Z,12.03
2019-05-19T02:52:28.192Z,12.00
2019-05-19T02:54:58.057Z,12.00
2019-05-19T02:57:27.294Z,11.99
2019-05-19T02:59:56.357Z,11.96
2019-05-19T03:02:24.768Z,11.89
2019-05-19T03:04:53.483Z,11.90
2019-05-19T03:07:21.880Z,11.85
2019-05-19T03:09:50.334Z,11.83
2019-05-19T03:12:18.719Z,11.77
2019-05-19T03:14:47.182Z,11.76
2019-05-19T03:17:15.582Z,11.70
2019-05-19T03:19:43.993Z,11.66
2019-05-19T03:22:12.391Z,11.66
2019-05-19T03:24:40.921Z,11.61
2019-05-19T03:27:09.396Z,11.61
2019-05-19T03:29:39.410Z,11.62
2019-05-19T03:32:12.484Z,11.61
2019-05-19T03:34:39.564Z,11.59
2019-05-19T03:37:08.031Z,11.67
2019-05-19T03:39:36.430Z,11.71
2019-05-19T03:42:05.106Z,11.59
2019-05-19T03:44:33.482Z,11.53
2019-05-19T03:47:01.914Z,11.52
2019-05-19T03:49:30.307Z,11.52
2019-05-19T03:51:58.755Z,11.55
2019-05-19T03:54:27.220Z,11.61
2019-05-19T03:56:55.622Z,11.64
2019-05-19T03:59:24.052Z,11.64
2019-05-19T04:01:52.445Z,11.61
2019-05-19T04:04:20.964Z,11.69
2019-05-19T04:06:49.423Z,11.57
2019-05-19T04:09:17.807Z,11.61
2019-05-19T04:11:46.199Z,11.67
2019-05-19T04:14:14.711Z,11.75
2019-05-19T04:16:43.127Z,11.77
2019-05-19T04:19:11.587Z,11.87
2019-05-19T04:21:48.953Z,11.97
2019-05-19T04:24:10.144Z,12.04
2019-05-19T04:26:38.583Z,12.12
2019-05-19T04:29:07.034Z,12.23
2019-05-19T04:31:35.445Z,12.31
2019-05-19T04:34:04.064Z,12.38
2019-05-19T04:36:32.462Z,12.23
2019-05-19T04:39:00.892Z,12.54
2019-05-19T04:41:29.297Z,12.55
2019-05-19T04:43:57.770Z,12.60
2019-05-19T04:46:26.187Z,12.66
2019-05-19T04:48:54.599Z,12.65
2019-05-19T04:51:23.196Z,12.63
2019-05-19T04:53:51.558Z,12.69
2019-05-19T04:56:20.098Z,12.73
2019-05-19T04:58:48.451Z,12.69
2019-05-19T05:03:34.697Z,12.88
2019-05-19T05:06:03.104Z,12.89
2019-05-19T05:08:31.541Z,12.95
2019-05-19T05:11:00.042Z,13.02
2019-05-19T05:13:28.536Z,13.11
2019-05-19T05:15:56.914Z,13.20
2019-05-19T05:18:25.326Z,13.34
2019-05-19T05:20:53.747Z,13.41
2019-05-19T05:23:22.139Z,13.50
2019-05-19T05:25:50.573Z,13.54
2019-05-19T05:28:19.247Z,13.56
2019-05-19T05:30:47.661Z,13.65
2019-05-19T05:33:16.267Z,13.70
2019-05-19T05:35:44.680Z,13.80
2019-05-19T05:38:13.129Z,13.86
2019-05-19T05:40:41.542Z,13.97
2019-05-19T05:43:10.034Z,14.03
2019-05-19T05:45:38.442Z,14.10
2019-05-19T05:48:06.844Z,14.11
2019-05-19T05:50:35.263Z,14.11
2019-05-19T05:53:03.652Z,14.08
2019-05-19T05:55:32.067Z,14.10
2019-05-19T05:58:00.585Z,14.10
2019-05-19T06:00:29.008Z,14.03
2019-05-19T06:02:57.401Z,14.06
2019-05-19T06:05:25.822Z,14.15
2019-05-19T06:07:54.229Z,14.26
2019-05-19T06:10:22.648Z,14.30
2019-05-19T06:12:51.076Z,14.30
2019-05-19T06:15:19.476Z,14.32
2019-05-19T06:17:47.885Z,14.37
2019-05-19T06:20:16.293Z,14.41
2019-05-19T06:22:55.821Z,14.42
2019-05-19T06:25:16.437Z,14.45
2019-05-19T06:27:44.850Z,14.50
2019-05-19T06:30:13.888Z,14.55
2019-05-19T06:32:50.244Z,14.60
2019-05-19T06:35:19.494Z,14.67
2019-05-19T06:37:47.947Z,14.80
2019-05-19T06:40:17.192Z,14.93
2019-05-19T06:42:45.622Z,14.95
2019-05-19T06:45:14.689Z,14.85
2019-05-19T06:47:43.447Z,14.80
2019-05-19T06:50:12.583Z,14.85
2019-05-19T06:52:41.154Z,14.97
2019-05-19T06:55:10.985Z,15.01
2019-05-19T06:57:39.426Z,14.97
2019-05-19T07:00:08.385Z,15.01
2019-05-19T07:02:36.875Z,15.09
2019-05-19T07:05:08.944Z,15.25
2019-05-19T07:07:37.390Z,15.37
2019-05-19T07:10:09.106Z,15.46
2019-05-19T07:12:37.662Z,15.54
2019-05-19T07:15:07.591Z,15.61
2019-05-19T07:17:36.123Z,15.75
2019-05-19T07:20:05.593Z,16.02
2019-05-19T07:22:37.489Z,16.22
2019-05-19T07:25:06.176Z,16.41
2019-05-19T07:27:34.638Z,16.53
2019-05-19T07:30:04.381Z,16.60
2019-05-19T07:32:32.908Z,16.92
2019-05-19T07:35:01.360Z,17.16
2019-05-19T07:37:29.807Z,17.50
2019-05-19T07:39:58.331Z,17.88
2019-05-19T07:42:26.809Z,18.03
2019-05-19T07:44:55.349Z,18.20
2019-05-19T07:47:23.743Z,18.71
2019-05-19T07:49:52.232Z,19.03
2019-05-19T07:52:20.698Z,18.68
2019-05-19T07:54:49.184Z,18.63
2019-05-19T07:57:17.591Z,18.58
2019-05-19T07:59:45.988Z,18.51
2019-05-19T08:02:14.379Z,18.20
2019-05-19T08:04:42.800Z,18.29
2019-05-19T08:07:11.203Z,18.47
2019-05-19T08:09:39.628Z,18.55
2019-05-19T08:12:08.118Z,18.54
2019-05-19T08:14:36.710Z,18.24
2019-05-19T08:17:05.266Z,18.21
2019-05-19T08:19:33.672Z,18.57
2019-05-19T08:22:02.211Z,19.24
2019-05-19T08:24:30.605Z,19.75
2019-05-19T08:26:59.023Z,20.29
2019-05-19T08:29:27.462Z,20.69
2019-05-19T08:31:55.943Z,21.12
2019-05-19T08:34:24.598Z,21.62
2019-05-19T08:36:53.012Z,21.91
2019-05-19T08:39:21.469Z,22.14
2019-05-19T08:41:49.880Z,22.65
2019-05-19T08:44:18.282Z,22.26
2019-05-19T08:46:46.713Z,21.49
2019-05-19T08:49:15.169Z,21.29
2019-05-19T08:51:43.670Z,21.04
2019-05-19T08:54:14.974Z,21.05
2019-05-19T08:56:42.304Z,20.77
2019-05-19T08:59:10.674Z,20.46
2019-05-19T09:01:39.198Z,20.43
2019-05-19T09:04:07.720Z,20.82
2019-05-19T09:06:36.183Z,20.97
2019-05-19T09:09:06.069Z,20.84
2019-05-19T09:11:34.570Z,21.06
2019-05-19T09:14:03.040Z,21.77
2019-05-19T09:16:31.510Z,22.33
2019-05-19T09:18:59.913Z,22.98
2019-05-19T09:21:28.593Z,23.45
2019-05-19T09:23:57.148Z,23.21
2019-05-19T09:26:25.585Z,22.73
2019-05-19T09:28:53.988Z,22.84
2019-05-19T09:31:22.392Z,22.89
2019-05-19T09:33:52.778Z,23.29
2019-05-19T09:36:21.350Z,23.09
2019-05-19T09:38:49.816Z,23.16
2019-05-19T09:41:18.245Z,23.25
2019-05-19T09:43:46.760Z,23.14
2019-05-19T09:46:15.262Z,22.99
2019-05-19T09:48:43.763Z,23.45
2019-05-19T09:51:12.216Z,23.65
2019-05-19T09:53:40.613Z,23.52
2019-05-19T09:56:09.006Z,23.54
2019-05-19T09:58:37.429Z,24.04
2019-05-19T10:01:05.823Z,24.44
2019-05-19T10:03:34.339Z,24.77
2019-05-19T10:06:02.923Z,24.85
2019-05-19T10:08:32.333Z,25.51
2019-05-19T10:11:12.921Z,25.92
2019-05-19T10:13:41.469Z,26.71
2019-05-19T10:16:09.972Z,26.38
2019-05-19T10:18:38.415Z,25.81
2019-05-19T10:21:06.897Z,25.13
2019-05-19T10:23:35.343Z,25.54
2019-05-19T10:26:03.804Z,25.91
2019-05-19T10:28:32.192Z,25.94
2019-05-19T10:31:00.620Z,25.32
2019-05-19T10:33:29.074Z,24.41
2019-05-19T10:35:57.553Z,24.25
2019-05-19T10:38:25.933Z,23.59
2019-05-19T10:40:54.350Z,23.02
2019-05-19T10:43:22.734Z,22.30
2019-05-19T10:45:52.816Z,22.17
2019-05-19T10:48:21.234Z,22.34
2019-05-19T10:50:49.690Z,22.77
2019-05-19T10:53:18.091Z,23.23
2019-05-19T10:55:46.495Z,23.41
2019-05-19T10:58:14.898Z,23.68
2019-05-19T11:00:43.310Z,24.39
2019-05-19T11:03:11.720Z,25.19
2019-05-19T11:05:40.144Z,25.49
2019-05-19T11:08:08.592Z,25.32
2019-05-19T11:10:37.093Z,25.49
2019-05-19T11:13:05.573Z,25.54
2019-05-19T11:15:33.996Z,26.21
2019-05-19T11:18:02.402Z,26.28
2019-05-19T11:20:30.855Z,25.63
2019-05-19T11:22:59.251Z,25.80
2019-05-19T11:25:33.789Z,26.12
2019-05-19T11:27:57.812Z,26.80
2019-05-19T11:30:26.385Z,26.89
2019-05-19T11:32:54.778Z,26.09
2019-05-19T11:35:23.304Z,26.03
2019-05-19T11:37:51.723Z,25.74
2019-05-19T11:40:20.394Z,25.57
2019-05-19T11:42:48.826Z,25.47
2019-05-19T11:45:17.472Z,25.78
2019-05-19T11:47:45.888Z,26.12
2019-05-19T11:50:14.430Z,26.67
2019-05-19T11:52:42.861Z,26.79
2019-05-19T11:55:11.604Z,26.32
2019-05-19T11:57:40.030Z,26.10
2019-05-19T12:00:09.360Z,25.94
2019-05-19T12:02:37.836Z,26.18
2019-05-19T12:05:06.359Z,26.30
2019-05-19T12:07:34.819Z,26.23
2019-05-19T12:10:03.408Z,26.26
2019-05-19T12:12:31.858Z,26.27
2019-05-19T12:15:00.268Z,26.82
2019-05-19T12:17:28.653Z,27.60
2019-05-19T12:19:57.053Z,27.93
2019-05-19T12:22:25.458Z,28.52
2019-05-19T12:24:53.854Z,28.42
2019-05-19T12:27:22.257Z,28.03
2019-05-19T12:29:50.702Z,27.56
2019-05-19T12:32:19.182Z,27.24
2019-05-19T12:34:47.637Z,27.74
2019-05-19T12:37:16.118Z,27.84
2019-05-19T12:39:44.516Z,27.69
2019-05-19T12:42:12.978Z,27.27
2019-05-19T12:44:41.382Z,27.60
2019-05-19T12:47:09.844Z,27.95
2019-05-19T12:49:38.309Z,28.01
2019-05-19T12:52:06.886Z,27.76
2019-05-19T12:54:35.381Z,27.62
2019-05-19T12:57:03.802Z,28.14
2019-05-19T12:59:32.278Z,28.63
2019-05-19T13:02:00.997Z,28.83
2019-05-19T13:04:29.377Z,28.87
2019-05-19T13:06:57.813Z,29.11
2019-05-19T13:09:26.230Z,28.58
2019-05-19T13:11:54.796Z,27.82
2019-05-19T13:14:23.195Z,27.07
2019-05-19T13:16:51.628Z,26.80
2019-05-19T13:19:20.125Z,26.79
2019-05-19T13:21:48.532Z,27.16
2019-05-19T13:24:16.935Z,27.95
2019-05-19T13:26:55.972Z,27.90
2019-05-19T13:29:15.480Z,27.56
2019-05-19T13:31:43.867Z,27.48
2019-05-19T13:34:12.326Z,27.84
2019-05-19T13:36:40.742Z,28.18
2019-05-19T13:39:09.241Z,28.35
2019-05-19T13:41:37.680Z,28.10
2019-05-19T13:44:06.212Z,28.42
2019-05-19T13:46:34.629Z,28.67
2019-05-19T13:49:03.175Z,28.81
2019-05-19T13:51:31.658Z,29.29
2019-05-19T13:54:00.100Z,29.27
2019-05-19T13:56:28.513Z,28.82
2019-05-19T13:58:56.896Z,28.63
2019-05-19T14:01:28.573Z,27.94
2019-05-19T14:03:55.625Z,28.18
2019-05-19T14:06:24.124Z,27.95
2019-05-19T14:08:52.498Z,27.78
2019-05-19T14:11:20.915Z,27.82
2019-05-19T14:13:49.389Z,27.85
2019-05-19T14:16:17.779Z,28.21
2019-05-19T14:18:46.262Z,28.54
2019-05-19T14:21:14.732Z,28.55
2019-05-19T14:23:43.150Z,28.52
2019-05-19T14:26:11.731Z,28.52
2019-05-19T14:28:40.188Z,28.58
2019-05-19T14:31:08.789Z,28.42
2019-05-19T14:33:37.318Z,27.89
2019-05-19T14:36:05.729Z,27.55
2019-05-19T14:38:34.347Z,27.90
2019-05-19T14:41:02.777Z,27.98
2019-05-19T14:43:32.892Z,28.23
2019-05-19T14:46:01.400Z,27.97
2019-05-19T14:48:29.895Z,27.84
2019-05-19T14:50:58.288Z,27.38
2019-05-19T14:53:26.878Z,27.46
2019-05-19T14:55:55.435Z,27.65
2019-05-19T14:58:23.912Z,27.74
2019-05-19T15:00:52.453Z,27.76
2019-05-19T15:03:20.948Z,27.62
2019-05-19T15:05:49.338Z,27.00
2019-05-19T15:08:17.869Z,26.69
2019-05-19T15:10:46.374Z,26.82
2019-05-19T15:13:15.053Z,27.19
2019-05-19T15:15:43.501Z,27.03
2019-05-19T15:18:11.908Z,26.68
2019-05-19T15:20:40.337Z,26.53
2019-05-19T15:23:08.777Z,26.57
2019-05-19T15:25:37.259Z,26.94
2019-05-19T15:28:05.773Z,27.27
2019-05-19T15:30:34.285Z,27.50
2019-05-19T15:33:02.759Z,27.54
2019-05-19T15:35:31.273Z,27.33
2019-05-19T15:37:59.843Z,27.39
2019-05-19T15:40:28.269Z,27.45
2019-05-19T15:42:56.678Z,27.69
2019-05-19T15:45:25.263Z,27.69
2019-05-19T15:47:53.717Z,27.40
2019-05-19T15:50:22.246Z,26.74
2019-05-19T15:52:50.651Z,26.25
2019-05-19T15:55:19.044Z,25.68
2019-05-19T15:57:47.479Z,25.35
2019-05-19T16:00:16.159Z,25.14
2019-05-19T16:02:44.636Z,25.32
2019-05-19T16:05:13.355Z,25.64
2019-05-19T16:07:41.858Z,26.02
2019-05-19T16:10:11.509Z,26.19
2019-05-19T16:12:39.921Z,26.21
2019-05-19T16:15:09.554Z,26.44
2019-05-19T16:17:37.917Z,26.66
2019-05-19T16:20:07.487Z,26.67
2019-05-19T16:22:36.160Z,26.74
2019-05-19T16:25:07.099Z,26.80
2019-05-19T16:27:36.013Z,26.76
2019-05-19T16:30:09.698Z,26.76
2019-05-19T16:32:38.245Z,26.92
2019-05-19T16:35:07.485Z,26.96
2019-05-19T16:37:35.977Z,26.89
2019-05-19T16:40:05.169Z,26.73
2019-05-19T16:42:33.662Z,26.91
2019-05-19T16:45:02.070Z,26.79
2019-05-19T16:47:30.509Z,26.56
2019-05-19T16:49:58.860Z,26.51
2019-05-19T16:52:27.299Z,26.55
2019-05-19T16:55:13.313Z,26.31
2019-05-19T16:57:41.751Z,26.18
2019-05-19T17:00:10.506Z,26.27
2019-05-19T17:02:39.043Z,26.30
2019-05-19T17:05:07.839Z,26.41
2019-05-19T17:07:36.451Z,26.48
2019-05-19T17:10:07.518Z,26.23
2019-05-19T17:12:35.957Z,25.96
2019-05-19T17:15:05.614Z,25.87
2019-05-19T17:17:34.111Z,25.95
2019-05-19T17:20:02.620Z,26.09
2019-05-19T17:22:31.149Z,25.91
2019-05-19T17:25:00.424Z,25.70
2019-05-19T17:27:29.503Z,25.60
2019-05-19T17:29:57.964Z,25.49
2019-05-19T17:32:26.311Z,25.22
2019-05-19T17:34:54.941Z,25.04
2019-05-19T17:37:23.418Z,24.94
2019-05-19T17:39:52.165Z,24.70
2019-05-19T17:42:20.584Z,24.56
2019-05-19T17:44:49.005Z,24.40
2019-05-19T17:47:17.431Z,24.22
2019-05-19T17:49:46.034Z,24.20
2019-05-19T17:52:14.408Z,24.04
2019-05-19T17:54:43.477Z,24.02
2019-05-19T17:57:12.108Z,23.89
2019-05-19T17:59:43.582Z,23.84
2019-05-19T18:02:12.000Z,23.58
2019-05-19T18:04:40.430Z,23.20
2019-05-19T18:07:08.883Z,22.88
2019-05-19T18:09:37.317Z,22.67
2019-05-19T18:12:05.778Z,22.49
2019-05-19T18:14:34.328Z,22.24
2019-05-19T18:17:03.036Z,22.14
2019-05-19T18:19:31.902Z,21.96
2019-05-19T18:22:00.471Z,21.89
2019-05-19T18:24:29.312Z,21.73
2019-05-19T18:26:57.845Z,21.51
2019-05-19T18:29:31.258Z,21.40
2019-05-19T18:31:56.550Z,21.38
2019-05-19T18:34:24.984Z,21.30
2019-05-19T18:36:53.755Z,21.10
2019-05-19T18:39:22.217Z,21.08
2019-05-19T18:41:50.982Z,20.98
2019-05-19T18:44:19.440Z,20.81
2019-05-19T18:46:47.921Z,20.87
2019-05-19T18:49:16.436Z,20.66
2019-05-19T18:51:44.842Z,20.46
2019-05-19T18:54:13.314Z,20.36
2019-05-19T18:56:41.707Z,20.35
2019-05-19T18:59:10.265Z,20.21
2019-05-19T19:01:38.892Z,20.15
2019-05-19T19:04:07.486Z,20.07
2019-05-19T19:06:35.989Z,20.02
2019-05-19T19:09:05.902Z,19.93
2019-05-19T19:11:34.388Z,19.86
2019-05-19T19:14:02.857Z,19.85
2019-05-19T19:16:31.311Z,19.93
2019-05-19T19:18:59.734Z,19.88
2019-05-19T19:21:28.219Z,19.84
2019-05-19T19:23:56.643Z,19.86
2019-05-19T19:26:25.138Z,19.85
2019-05-19T19:28:53.585Z,19.89
2019-05-19T19:31:22.078Z,19.90
2019-05-19T19:33:50.490Z,19.81
2019-05-19T19:36:18.930Z,19.76
2019-05-19T19:38:47.493Z,19.63
2019-05-19T19:41:15.918Z,19.64
2019-05-19T19:43:44.364Z,19.61
2019-05-19T19:46:12.826Z,19.46
2019-05-19T19:48:41.256Z,19.44
2019-05-19T19:51:09.862Z,19.36
2019-05-19T19:53:38.261Z,19.31
2019-05-19T19:56:06.803Z,19.19
2019-05-19T19:58:35.226Z,19.08
2019-05-19T20:03:39.841Z,18.88
2019-05-19T20:06:04.885Z,18.72
2019-05-19T20:08:33.254Z,18.57
2019-05-19T20:11:01.820Z,18.55
2019-05-19T20:13:30.298Z,18.47
2019-05-19T20:15:58.695Z,18.45
2019-05-19T20:18:27.380Z,18.43
2019-05-19T20:20:55.788Z,18.38
2019-05-19T20:23:24.400Z,18.31
2019-05-19T20:25:53.016Z,18.24
2019-05-19T20:28:21.559Z,18.18
2019-05-19T20:30:50.034Z,18.14
2019-05-19T20:33:18.650Z,18.04
2019-05-19T20:35:47.167Z,17.95
2019-05-19T20:38:15.581Z,17.83
2019-05-19T20:40:43.981Z,17.79
2019-05-19T20:43:12.479Z,17.76
2019-05-19T20:45:40.899Z,17.70
2019-05-19T20:48:09.290Z,17.62
2019-05-19T20:50:37.697Z,17.58
2019-05-19T20:53:06.110Z,17.58
2019-05-19T20:55:34.587Z,17.55
2019-05-19T20:58:03.005Z,17.46
2019-05-19T21:00:31.565Z,17.37
2019-05-19T21:02:59.970Z,17.33
2019-05-19T21:05:28.598Z,17.24
2019-05-19T21:07:57.208Z,17.21
2019-05-19T21:10:25.601Z,17.17
2019-05-19T21:12:57.205Z,17.05
2019-05-19T21:15:24.288Z,17.00
2019-05-19T21:17:52.768Z,16.98
2019-05-19T21:20:21.306Z,16.84
2019-05-19T21:22:49.717Z,16.77
2019-05-19T21:25:18.138Z,16.75
2019-05-19T21:27:46.612Z,16.71
2019-05-19T21:30:15.052Z,16.62
2019-05-19T21:32:43.475Z,16.56
2019-05-19T21:35:11.871Z,16.56
2019-05-19T21:37:40.495Z,16.47
2019-05-19T21:40:09.105Z,16.52
2019-05-19T21:42:37.688Z,16.58
2019-05-19T21:45:07.649Z,16.47
2019-05-19T21:47:36.094Z,16.39
2019-05-19T21:50:06.408Z,16.33
2019-05-19T21:52:34.864Z,16.37
2019-05-19T21:55:04.100Z,16.34
2019-05-19T21:57:32.523Z,16.35
2019-05-19T22:00:01.068Z,16.31
2019-05-19T22:02:29.670Z,16.32
2019-05-19T22:04:58.064Z,16.32
2019-05-19T22:07:28.120Z,16.33
2019-05-19T22:09:56.572Z,16.36
2019-05-19T22:12:25.025Z,16.37
2019-05-19T22:14:53.476Z,16.45
2019-05-19T22:17:21.889Z,16.50
2019-05-19T22:19:50.368Z,16.61
2019-05-19T22:22:18.847Z,16.62
2019-05-19T22:24:47.192Z,16.54
2019-05-19T22:27:15.611Z,16.47
2019-05-19T22:29:44.095Z,16.41
2019-05-19T22:32:12.561Z,16.33
2019-05-19T22:34:40.968Z,16.30
2019-05-19T22:37:09.418Z,16.26
2019-05-19T22:39:37.842Z,16.34
2019-05-19T22:42:06.241Z,16.36
2019-05-19T22:44:34.646Z,16.38
2019-05-19T22:47:03.143Z,16.29
2019-05-19T22:49:31.551Z,16.30
2019-05-19T22:52:00.004Z,16.37
2019-05-19T22:54:28.610Z,16.36
2019-05-19T22:56:56.992Z,16.31
2019-05-19T22:59:25.593Z,16.37
2019-05-19T23:01:53.987Z,16.40
2019-05-19T23:04:22.454Z,16.37
2019-05-19T23:06:50.860Z,16.40
2019-05-19T23:09:19.355Z,16.29
2019-05-19T23:11:47.749Z,16.27
2019-05-19T23:14:16.156Z,16.24
2019-05-19T23:16:44.535Z,16.27
2019-05-19T23:19:12.966Z,16.22
2019-05-19T23:21:41.359Z,16.04
2019-05-19T23:24:09.887Z,15.92
2019-05-19T23:26:38.287Z,15.88
2019-05-19T23:29:06.847Z,15.83
2019-05-19T23:31:35.322Z,15.88
2019-05-19T23:34:03.816Z,15.88
2019-05-19T23:36:32.221Z,15.95
2019-05-19T23:39:00.639Z,15.97
2019-05-19T23:41:29.237Z,15.98
2019-05-19T23:43:57.623Z,15.93
2019-05-19T23:46:26.038Z,15.88
2019-05-19T23:48:54.437Z,15.87
2019-05-19T23:51:22.836Z,15.88
2019-05-19T23:53:51.233Z,15.92
2019-05-19T23:56:19.845Z,15.93
2019-05-19T23:58:48.262Z,15.95
